createdAt,value
2023-04-08T00:00:36.559Z,19.4
2023-04-08T00:05:37.296Z,19.4
2023-04-08T00:10:38.004Z,19.3
2023-04-08T00:15:41.158Z,19.3
2023-04-08T00:20:41.358Z,19.3
2023-04-08T00:25:42.156Z,19.3
2023-04-08T00:30:43.028Z,19.3
2023-04-08T00:35:43.664Z,19.3
2023-04-08T00:40:44.180Z,19.3
2023-04-08T00:45:47.757Z,19.3
2023-04-08T00:50:50.532Z,19.3
2023-04-08T00:55:51.535Z,19.2
2023-04-08T01:00:53.822Z,19.2
2023-04-08T01:05:54.241Z,19.3
2023-04-08T01:10:57.548Z,19.2
2023-04-08T01:15:57.715Z,19.2
2023-04-08T01:20:58.462Z,19.3
2023-04-08T01:25:59.122Z,19.2
2023-04-08T01:30:59.768Z,19.3
2023-04-08T01:36:03.290Z,19.2
2023-04-08T01:41:03.269Z,19.2
2023-04-08T01:46:04.067Z,19.2
2023-04-08T01:51:04.828Z,19.2
2023-04-08T01:56:08.152Z,19.2
2023-04-08T02:01:08.304Z,19.2
2023-04-08T02:06:11.916Z,19.2
2023-04-08T02:11:12.321Z,19.2
2023-04-08T02:16:13.086Z,19.2
2023-04-08T02:21:16.499Z,19.1
2023-04-08T02:26:16.625Z,19.1
2023-04-08T02:31:17.086Z,19.1
2023-04-08T02:36:17.708Z,19.1
2023-04-08T02:41:22.697Z,19.1
2023-04-08T02:46:22.775Z,19.1
2023-04-08T02:51:23.237Z,19.1
2023-04-08T02:56:26.692Z,19.1
2023-04-08T03:01:26.779Z,19.1
2023-04-08T03:06:27.214Z,19.1
2023-04-08T03:11:27.630Z,19.1
2023-04-08T03:16:28.279Z,19.1
2023-04-08T03:21:31.824Z,19.1
2023-04-08T03:26:31.887Z,19.1
2023-04-08T03:31:32.714Z,19.1
2023-04-08T03:36:36.086Z,19.1
2023-04-08T03:41:39.012Z,19
2023-04-08T03:46:41.792Z,19
2023-04-08T03:51:44.615Z,19.1
2023-04-08T03:56:44.623Z,19.1
2023-04-08T04:01:45.335Z,19.1
2023-04-08T04:06:45.845Z,19
2023-04-08T04:11:46.619Z,19
2023-04-08T04:16:47.326Z,19.1
2023-04-08T04:21:47.428Z,19.1
2023-04-08T04:26:50.798Z,19
2023-04-08T04:31:53.581Z,19
2023-04-08T04:36:58.347Z,19
2023-04-08T04:41:58.209Z,19
2023-04-08T04:46:59.034Z,19
2023-04-08T04:51:59.618Z,19
2023-04-08T04:57:03.056Z,19
2023-04-08T05:02:05.967Z,19
2023-04-08T05:07:08.542Z,19
2023-04-08T05:12:08.686Z,19
2023-04-08T05:17:09.010Z,19
2023-04-08T05:22:12.271Z,19
2023-04-08T05:27:12.457Z,19
2023-04-08T05:32:13.040Z,19.1
2023-04-08T05:37:12.815Z,19.1
2023-04-08T05:42:16.468Z,19.1
2023-04-08T05:47:19.196Z,19.1
2023-04-08T05:52:19.279Z,19.1
2023-04-08T05:57:22.658Z,19.1
2023-04-08T06:02:22.829Z,19.1
2023-04-08T06:07:24.045Z,19.2
2023-04-08T06:12:24.426Z,19.1
2023-04-08T06:17:27.998Z,19.1
2023-04-08T06:22:28.063Z,19.2
2023-04-08T06:27:31.305Z,19.2
2023-04-08T06:32:34.231Z,19.2
2023-04-08T06:37:37.170Z,19.2
2023-04-08T06:42:37.339Z,19.2
2023-04-08T06:47:37.844Z,19.3
2023-04-08T06:52:38.068Z,19.2
2023-04-08T06:57:41.297Z,19.2
2023-04-08T07:02:41.733Z,19.3
2023-04-08T07:07:45.377Z,19.3
2023-04-08T07:12:48.137Z,19.3
2023-04-08T07:17:51.065Z,19.3
2023-04-08T07:22:53.963Z,19.3
2023-04-08T07:27:57.015Z,19.3
2023-04-08T07:32:58.079Z,19.4
2023-04-08T07:37:57.103Z,19.4
2023-04-08T07:42:57.770Z,19.4
2023-04-08T07:47:58.414Z,19.4
2023-04-08T07:52:59.131Z,19.4
2023-04-08T07:57:59.588Z,19.5
2023-04-08T08:03:03.016Z,19.4
2023-04-08T08:08:03.179Z,19.5
2023-04-08T08:13:03.471Z,19.4
2023-04-08T08:18:04.317Z,19.5
2023-04-08T08:23:04.823Z,19.4
2023-04-08T08:28:05.593Z,19.5
2023-04-08T08:33:03.963Z,19.5
2023-04-08T08:38:04.528Z,19.5
2023-04-08T08:43:04.832Z,19.5
2023-04-08T08:48:05.453Z,19.5
2023-04-08T08:53:06.012Z,19.5
2023-04-08T08:58:06.572Z,19.5
2023-04-08T09:03:07.429Z,19.5
2023-04-08T09:08:08.145Z,19.5
2023-04-08T09:13:08.594Z,19.5
2023-04-08T09:18:12.013Z,19.5
2023-04-08T09:23:15.018Z,19.5
2023-04-08T09:28:16.954Z,19.5
2023-04-08T09:33:17.375Z,19.5
2023-04-08T09:38:17.881Z,19.6
2023-04-08T09:43:21.311Z,19.6
2023-04-08T09:48:21.464Z,19.6
2023-04-08T09:53:24.754Z,19.6
2023-04-08T09:58:33.541Z,19.6
2023-04-08T10:03:32.956Z,19.6
2023-04-08T10:08:33.374Z,19.7
2023-04-08T10:13:33.963Z,19.7
2023-04-08T10:18:34.560Z,19.7
2023-04-08T10:23:35.216Z,19.7
2023-04-08T10:28:35.849Z,19.7
2023-04-08T10:33:39.295Z,19.7
2023-04-08T10:38:37.176Z,19.7
2023-04-08T10:43:37.731Z,19.7
2023-04-08T10:48:38.534Z,19.7
2023-04-08T10:53:41.775Z,19.7
2023-04-08T10:58:41.937Z,19.7
2023-04-08T11:03:42.484Z,19.7
2023-04-08T11:08:45.685Z,19.7
2023-04-08T11:18:48.631Z,19.8
2023-04-08T11:23:49.681Z,19.8
2023-04-08T11:28:52.380Z,19.8
2023-04-08T11:33:52.581Z,19.8
2023-04-08T11:38:55.816Z,19.8
2023-04-08T11:43:55.828Z,19.8
2023-04-08T11:48:56.127Z,19.8
2023-04-08T11:53:59.694Z,19.8
2023-04-08T11:58:59.719Z,19.8
2023-04-08T12:04:02.919Z,19.9
2023-04-08T12:09:02.781Z,19.9
2023-04-08T12:14:07.746Z,19.9
2023-04-08T12:19:07.371Z,19.9
2023-04-08T12:24:07.861Z,19.9
2023-04-08T12:29:08.421Z,19.9
2023-04-08T12:34:09.029Z,19.8
2023-04-08T12:39:09.659Z,19.9
2023-04-08T12:44:10.061Z,19.9
2023-04-08T12:49:13.560Z,19.9
2023-04-08T12:54:16.173Z,19.9
2023-04-08T12:59:16.026Z,19.9
2023-04-08T13:04:16.664Z,19.8
2023-04-08T13:09:17.113Z,19.8
2023-04-08T13:14:20.272Z,19.8
2023-04-08T13:19:20.582Z,19.9
2023-04-08T13:24:21.184Z,19.9
2023-04-08T13:29:21.740Z,19.9
2023-04-08T13:34:22.096Z,19.9
2023-04-08T13:39:22.906Z,19.9
2023-04-08T13:44:26.008Z,19.9
2023-04-08T13:49:26.241Z,19.9
2023-04-08T13:54:36.590Z,19.9
2023-04-08T13:59:35.380Z,19.9
2023-04-08T14:04:38.427Z,19.9
2023-04-08T14:09:38.601Z,20
2023-04-08T14:14:41.561Z,20
2023-04-08T14:19:41.732Z,20
2023-04-08T14:24:42.524Z,20
2023-04-08T14:29:43.436Z,20
2023-04-08T14:34:44.105Z,20.1
2023-04-08T14:39:47.283Z,20.1
2023-04-08T14:44:47.400Z,20.1
2023-04-08T14:49:47.875Z,20.1
2023-04-08T14:54:52.010Z,20.1
2023-04-08T14:59:54.764Z,20.1
2023-04-08T15:04:54.659Z,20.1
2023-04-08T15:09:57.080Z,20.1
2023-04-08T15:14:57.153Z,20.1
2023-04-08T15:19:57.681Z,20.1
2023-04-08T15:24:58.176Z,20.1
2023-04-08T15:30:01.462Z,20.1
2023-04-08T15:35:01.521Z,20.1
2023-04-08T15:40:02.123Z,20.1
2023-04-08T15:45:02.738Z,20.2
2023-04-08T15:50:06.078Z,20.2
2023-04-08T15:55:08.897Z,20.1
2023-04-08T16:00:09.214Z,20.1
2023-04-08T16:05:09.835Z,20.2
2023-04-08T16:10:10.529Z,20.2
2023-04-08T16:15:13.928Z,20.2
2023-04-08T16:20:18.226Z,20.1
2023-04-08T16:25:16.899Z,20.2
2023-04-08T16:30:20.124Z,20.2
2023-04-08T16:35:20.291Z,20.2
2023-04-08T16:40:25.487Z,20.2
2023-04-08T16:45:25.320Z,20.2
2023-04-08T16:50:25.715Z,20.2
2023-04-08T16:55:26.280Z,20.2
2023-04-08T17:00:27.240Z,20.2
2023-04-08T17:05:27.392Z,20.2
2023-04-08T17:10:27.980Z,20.1
2023-04-08T17:15:28.596Z,20.2
2023-04-08T17:20:29.080Z,20.2
2023-04-08T17:25:29.510Z,20.2
2023-04-08T17:30:30.672Z,20.1
2023-04-08T17:35:46.032Z,20.1
2023-04-08T17:40:44.480Z,20.2
2023-04-08T17:45:47.702Z,20.2
2023-04-08T17:50:47.677Z,20.1
2023-04-08T17:55:48.259Z,20.1
2023-04-08T18:00:48.690Z,20.1
2023-04-08T18:05:49.098Z,20.1
2023-04-08T18:10:49.617Z,20.1
2023-04-08T18:15:50.048Z,20.1
2023-04-08T18:20:50.591Z,20.1
2023-04-08T18:25:51.025Z,20.1
2023-04-08T18:30:51.489Z,20.1
2023-04-08T18:35:51.917Z,20.1
2023-04-08T18:40:52.577Z,20
2023-04-08T18:45:53.232Z,20
2023-04-08T18:50:53.516Z,20
2023-04-08T18:55:54.184Z,20
2023-04-08T19:00:38.158Z,20
2023-04-08T19:05:38.698Z,20
2023-04-08T19:10:39.378Z,19.9
2023-04-08T19:15:40.001Z,19.9
2023-04-08T19:20:40.538Z,19.9
2023-04-08T19:25:43.831Z,19.9
2023-04-08T19:30:46.697Z,19.9
2023-04-08T19:35:49.333Z,19.9
2023-04-08T19:40:49.317Z,19.8
2023-04-08T19:45:53.439Z,19.8
2023-04-08T19:50:53.539Z,19.8
2023-04-08T19:55:54.098Z,19.8
2023-04-08T20:00:57.323Z,19.8
2023-04-08T20:06:00.232Z,19.8
2023-04-08T20:11:04.557Z,19.8
2023-04-08T20:16:03.138Z,19.8
2023-04-08T20:21:03.852Z,19.8
2023-04-08T20:26:04.349Z,19.8
2023-04-08T20:31:04.994Z,19.8
2023-04-08T20:36:05.568Z,19.8
2023-04-08T20:41:06.382Z,19.8
2023-04-08T20:46:07.120Z,19.8
2023-04-08T20:51:07.884Z,19.8
2023-04-08T20:56:11.001Z,19.8
2023-04-08T21:01:10.988Z,19.8
2023-04-08T21:06:11.222Z,19.7
2023-04-08T21:11:11.780Z,19.7
2023-04-08T21:16:12.281Z,19.7
2023-04-08T21:21:13.985Z,19.7
2023-04-08T21:26:14.263Z,19.7
2023-04-08T21:31:22.007Z,19.7
2023-04-08T21:36:23.035Z,19.7
2023-04-08T21:41:23.350Z,19.7
2023-04-08T21:46:24.074Z,19.7
2023-04-08T21:51:27.374Z,19.7
2023-04-08T21:56:27.173Z,19.7
2023-04-08T22:01:27.514Z,19.7
2023-04-08T22:06:32.407Z,19.7
2023-04-08T22:11:28.936Z,19.7
2023-04-08T22:16:29.343Z,19.7
2023-04-08T22:21:29.829Z,19.7
2023-04-08T22:26:30.446Z,19.6
2023-04-08T22:31:30.990Z,19.6
2023-04-08T22:36:30.317Z,19.6
2023-04-08T22:41:31.067Z,19.6
2023-04-08T22:46:31.405Z,19.6
2023-04-08T22:51:34.738Z,19.6
2023-04-08T22:56:34.846Z,19.6
2023-04-08T23:01:35.370Z,19.5
2023-04-08T23:06:35.870Z,19.5
2023-04-08T23:11:36.244Z,19.5
2023-04-08T23:16:39.574Z,19.5
2023-04-08T23:21:39.692Z,19.5
2023-04-08T23:26:43.177Z,19.5
2023-04-08T23:31:45.880Z,19.5
2023-04-08T23:36:48.853Z,19.5
2023-04-08T23:41:51.793Z,19.5
2023-04-08T23:46:52.051Z,19.5
2023-04-08T23:51:52.662Z,19.5
2023-04-08T23:56:53.134Z,19.5
